Time;durP1;ratioP1;P1;durP2;ratioP2;P2;SDS_P1;SDS_P2;PMS_P1;PMS_P2;Temp;Humidity;BMP_temperature;BMP_pressure;BME280_temperature;BME280_humidity;BME280_pressure;Samples;Min_cycle;Max_cycle;Signal;HPM_P1;HPM_P2
2022/05/08 00:01:26;;;;;;;6.27;4.37;;;14.50;99.90;;;;;;5035650;28;20455;-80
2022/05/08 00:03:52;;;;;;;6.30;4.07;;;14.50;99.90;;;;;;5034872;28;20841;-78
2022/05/08 00:06:19;;;;;;;9.17;3.97;;;14.50;99.90;;;;;;5035789;28;20483;-79
2022/05/08 00:08:46;;;;;;;6.33;3.90;;;14.50;99.90;;;;;;5035080;28;20968;-78
2022/05/08 00:11:13;;;;;;;6.87;3.60;;;14.50;99.90;;;;;;5035297;28;20463;-78
2022/05/08 00:13:40;;;;;;;5.80;3.10;;;14.40;99.90;;;;;;5034630;28;20460;-78
2022/05/08 00:16:07;;;;;;;7.10;3.70;;;14.40;99.90;;;;;;5034003;28;20980;-79
2022/05/08 00:18:35;;;;;;;5.10;3.20;;;14.40;99.90;;;;;;5034763;28;20511;-79
2022/05/08 00:21:02;;;;;;;7.07;4.53;;;14.30;99.90;;;;;;5034272;28;20960;-78
2022/05/08 00:23:29;;;;;;;5.20;3.47;;;14.30;99.90;;;;;;5034452;28;20464;-78
2022/05/08 00:25:56;;;;;;;7.27;3.30;;;14.30;99.90;;;;;;5034992;28;20537;-79
2022/05/08 00:28:23;;;;;;;6.70;4.00;;;14.30;99.90;;;;;;5034772;28;20448;-79
2022/05/08 00:30:50;;;;;;;5.43;3.70;;;14.20;99.90;;;;;;5034809;28;20966;-79
2022/05/08 00:33:17;;;;;;;7.27;3.30;;;14.20;99.90;;;;;;5034331;28;20486;-79
2022/05/08 00:35:45;;;;;;;8.80;3.60;;;14.10;99.90;;;;;;5034810;28;20490;-80
2022/05/08 00:38:12;;;;;;;10.50;4.03;;;14.00;99.90;;;;;;5034016;28;20488;-78
2022/05/08 00:40:39;;;;;;;8.43;4.43;;;13.90;99.90;;;;;;5033867;28;20457;-79
2022/05/08 00:43:25;;;;;;;7.67;4.73;;;13.90;99.90;;;;;;5034185;28;20441;-79
2022/05/08 00:45:52;;;;;;;6.73;4.40;;;14.00;99.90;;;;;;5014895;28;20459;-80
2022/05/08 00:48:19;;;;;;;8.10;4.30;;;14.00;99.90;;;;;;5016045;28;20491;-79
2022/05/08 00:50:47;;;;;;;9.70;4.50;;;13.90;99.90;;;;;;5034024;28;20839;-80
2022/05/08 00:53:14;;;;;;;5.70;4.63;;;13.90;99.90;;;;;;5021954;28;20822;-79
2022/05/08 00:55:42;;;;;;;11.40;5.10;;;13.90;99.90;;;;;;5034863;28;20456;-79
2022/05/08 00:58:09;;;;;;;8.73;5.00;;;14.00;99.90;;;;;;5034444;28;20480;-79
2022/05/08 01:00:36;;;;;;;7.53;4.83;;;14.00;99.90;;;;;;5034673;28;20458;-78
2022/05/08 01:03:03;;;;;;;9.93;5.50;;;14.00;99.90;;;;;;5034111;28;20460;-78
2022/05/08 01:05:30;;;;;;;7.17;5.50;;;14.00;99.90;;;;;;5035221;28;20458;-78
2022/05/08 01:07:58;;;;;;;9.37;5.57;;;13.90;99.90;;;;;;5042738;28;20473;-79
2022/05/08 01:10:25;;;;;;;8.10;5.40;;;13.80;99.90;;;;;;5044460;28;20578;-79
2022/05/08 01:12:53;;;;;;;7.10;5.43;;;13.80;99.90;;;;;;5044970;28;20498;-79
2022/05/08 01:15:20;;;;;;;8.20;5.30;;;13.80;99.90;;;;;;5045033;28;20449;-79
2022/05/08 01:17:48;;;;;;;9.17;6.10;;;13.80;99.90;;;;;;5044730;28;20492;-78
2022/05/08 01:20:16;;;;;;;11.47;5.40;;;13.70;99.90;;;;;;5031027;28;20457;-79
2022/05/08 01:22:45;;;;;;;9.07;5.20;;;13.70;99.90;;;;;;5045259;28;20457;-81
2022/05/08 01:25:11;;;;;;;9.63;5.50;;;13.70;99.90;;;;;;5044746;28;20544;-78
2022/05/08 01:27:38;;;;;;;8.53;5.80;;;13.70;99.90;;;;;;5046580;28;20474;-79
2022/05/08 01:30:06;;;;;;;9.47;5.47;;;13.70;99.90;;;;;;5048894;28;20523;-79
2022/05/08 01:32:33;;;;;;;11.20;5.10;;;13.70;99.90;;;;;;5049336;28;20447;-78
2022/05/08 01:35:00;;;;;;;6.23;5.07;;;13.80;99.90;;;;;;5048356;28;20460;-79
2022/05/08 01:37:27;;;;;;;10.70;6.87;;;13.70;99.90;;;;;;5043543;28;20477;-79
2022/05/08 01:39:57;;;;;;;8.77;5.40;;;13.80;99.90;;;;;;5038766;28;20919;-79
2022/05/08 01:42:26;;;;;;;9.20;6.87;;;13.80;99.90;;;;;;5039294;28;20532;-79
2022/05/08 01:44:53;;;;;;;9.87;6.50;;;13.60;99.90;;;;;;5038635;28;20486;-79
2022/05/08 01:50:05;;;;;;;10.73;7.13;;;13.60;99.90;;;;;;5039495;28;20474;-79
2022/05/08 01:52:32;;;;;;;9.80;6.50;;;13.40;99.90;;;;;;5046910;28;20556;-79
2022/05/08 01:55:00;;;;;;;10.10;8.00;;;13.40;99.90;;;;;;5042375;28;20449;-79
2022/05/08 01:57:27;;;;;;;11.47;6.70;;;13.40;99.90;;;;;;5037096;28;20552;-78
2022/05/08 01:59:53;;;;;;;12.00;6.77;;;13.40;99.90;;;;;;5037354;28;20456;-80
2022/05/08 02:02:20;;;;;;;9.70;7.23;;;13.40;99.90;;;;;;5037598;28;20459;-81
2022/05/08 02:04:48;;;;;;;9.73;7.43;;;13.20;99.90;;;;;;5037071;28;20466;-80
2022/05/08 02:07:14;;;;;;;9.97;7.90;;;13.20;99.90;;;;;;5037272;28;20475;-80
2022/05/08 02:09:41;;;;;;;12.47;8.13;;;13.10;99.90;;;;;;5036957;28;20450;-79
2022/05/08 02:12:11;;;;;;;11.43;8.27;;;13.10;99.90;;;;;;5037335;28;20559;-78
2022/05/08 02:14:38;;;;;;;11.13;8.60;;;13.00;99.90;;;;;;5035227;28;20455;-79
2022/05/08 02:17:05;;;;;;;12.30;8.00;;;12.80;99.90;;;;;;5038173;28;21025;-79
2022/05/08 02:19:31;;;;;;;10.70;7.70;;;12.70;99.90;;;;;;5037770;28;20844;-80
2022/05/08 02:21:58;;;;;;;10.53;8.93;;;12.60;99.90;;;;;;5036866;28;20525;-79
2022/05/08 02:24:25;;;;;;;11.97;9.07;;;12.60;99.90;;;;;;5035651;28;20448;-78
2022/05/08 02:26:52;;;;;;;10.20;8.40;;;12.60;99.90;;;;;;5037116;28;20485;-79
2022/05/08 02:29:20;;;;;;;9.50;8.23;;;12.60;99.90;;;;;;5036010;28;20547;-77
2022/05/08 02:31:47;;;;;;;10.80;8.37;;;12.60;99.90;;;;;;5035847;28;20467;-78
2022/05/08 02:34:14;;;;;;;16.67;10.47;;;12.60;99.90;;;;;;5035452;28;20544;-79
2022/05/08 02:36:41;;;;;;;13.20;10.37;;;12.50;99.90;;;;;;5036126;28;20483;-77
2022/05/08 02:39:08;;;;;;;14.50;9.70;;;12.50;99.90;;;;;;5034369;28;20490;-77
2022/05/08 02:41:34;;;;;;;15.13;10.93;;;12.50;99.90;;;;;;5036514;28;20479;-79
2022/05/08 02:44:01;;;;;;;12.20;9.97;;;12.40;99.90;;;;;;5036080;28;20460;-79
2022/05/08 02:46:29;;;;;;;13.57;8.83;;;12.50;99.90;;;;;;5037196;28;20559;-79
2022/05/08 02:48:56;;;;;;;14.90;10.70;;;12.40;99.90;;;;;;5035839;28;20453;-78
2022/05/08 02:51:23;;;;;;;12.70;10.03;;;12.50;99.90;;;;;;5037159;28;20458;-79
2022/05/08 02:53:50;;;;;;;14.23;9.90;;;12.40;99.90;;;;;;5035778;28;20485;-78
2022/05/08 02:59:01;;;;;;;16.47;11.47;;;12.40;99.90;;;;;;5038871;28;20476;-79
2022/05/08 03:01:29;;;;;;;20.60;11.90;;;12.40;99.90;;;;;;5035965;28;20834;-79
2022/05/08 03:03:56;;;;;;;20.27;12.40;;;12.50;99.90;;;;;;5036650;28;20527;-79
2022/05/08 03:06:22;;;;;;;15.83;11.77;;;12.40;99.90;;;;;;5034538;28;20489;-79
2022/05/08 03:08:52;;;;;;;18.00;11.20;;;12.40;99.90;;;;;;5032417;28;20459;-80
2022/05/08 03:11:29;;;;;;;14.23;11.47;;;12.30;99.90;;;;;;5036304;28;20449;-79
2022/05/08 03:13:57;;;;;;;16.77;11.40;;;12.30;99.90;;;;;;5035944;28;20457;-79
2022/05/08 03:16:26;;;;;;;14.63;11.23;;;12.20;99.90;;;;;;5034755;28;20475;-79
2022/05/08 03:18:54;;;;;;;16.50;10.33;;;12.20;99.90;;;;;;5035557;28;20567;-80
2022/05/08 03:21:23;;;;;;;16.17;10.13;;;12.20;99.90;;;;;;5036017;28;20884;-79
2022/05/08 03:23:51;;;;;;;14.23;10.90;;;12.30;99.90;;;;;;5035964;28;20452;-78
2022/05/08 03:26:19;;;;;;;16.30;11.60;;;12.20;99.90;;;;;;5036233;28;20482;-80
2022/05/08 03:28:47;;;;;;;14.43;10.40;;;12.20;99.90;;;;;;5035828;28;20458;-80
2022/05/08 03:31:13;;;;;;;16.77;11.03;;;12.10;99.90;;;;;;5036843;28;20479;-80
2022/05/08 03:33:41;;;;;;;15.47;10.60;;;12.10;99.90;;;;;;5036588;28;20460;-80
2022/05/08 03:36:11;;;;;;;19.57;11.77;;;12.10;99.90;;;;;;5036286;28;20542;-79
2022/05/08 03:38:42;;;;;;;14.00;10.00;;;12.10;99.90;;;;;;5035821;28;20495;-78
2022/05/08 03:41:14;;;;;;;16.13;9.60;;;12.10;99.90;;;;;;5035856;28;20537;-79
2022/05/08 03:43:42;;;;;;;17.77;11.30;;;12.10;99.90;;;;;;5034500;28;20466;-79
2022/05/08 03:46:08;;;;;;;12.20;8.93;;;12.10;99.90;;;;;;5015573;28;20486;-80
2022/05/08 03:48:36;;;;;;;13.90;9.40;;;12.00;99.90;;;;;;5032573;28;20448;-80
2022/05/08 03:51:03;;;;;;;17.60;10.37;;;12.00;99.90;;;;;;5035407;28;20445;-79
2022/05/08 03:53:31;;;;;;;11.80;8.30;;;11.90;99.90;;;;;;5034693;28;20456;-78
2022/05/08 03:55:58;;;;;;;11.20;7.93;;;12.00;99.90;;;;;;5035256;28;20454;-79
2022/05/08 03:58:25;;;;;;;14.80;9.47;;;12.00;99.90;;;;;;5034584;28;20494;-78
2022/05/08 04:00:52;;;;;;;16.57;9.73;;;12.00;99.90;;;;;;5033594;28;20506;-78
2022/05/08 04:03:18;;;;;;;16.73;9.90;;;11.90;99.90;;;;;;5036556;28;20515;-77
2022/05/08 04:05:45;;;;;;;15.47;10.03;;;11.90;99.90;;;;;;5040807;28;20460;-79
2022/05/08 04:08:12;;;;;;;16.30;9.20;;;11.90;99.90;;;;;;5034406;28;20557;-77
2022/05/08 04:10:40;;;;;;;15.23;9.23;;;11.90;99.90;;;;;;5033231;28;20483;-77
2022/05/08 04:13:07;;;;;;;16.63;7.07;;;11.90;99.90;;;;;;5033632;28;20491;-78
2022/05/08 04:18:18;;;;;;;15.97;7.57;;;11.70;99.90;;;;;;5034620;28;20483;-78
2022/05/08 04:20:45;;;;;;;14.53;6.20;;;11.80;99.90;;;;;;5034136;28;20937;-79
2022/05/08 04:25:58;;;;;;;10.80;5.20;;;11.60;99.90;;;;;;5034974;28;20450;-78
2022/05/08 04:28:25;;;;;;;12.80;5.10;;;11.50;99.90;;;;;;5034683;28;20457;-79
2022/05/08 04:30:52;;;;;;;16.73;5.87;;;11.40;99.90;;;;;;5033355;28;20998;-79
2022/05/08 04:33:18;;;;;;;11.00;4.90;;;11.40;99.90;;;;;;5034168;28;20464;-80
2022/05/08 04:35:45;;;;;;;19.00;5.60;;;11.20;99.90;;;;;;5033816;28;20510;-80
2022/05/08 04:38:12;;;;;;;17.57;6.53;;;11.10;99.90;;;;;;5034817;28;20483;-79
2022/05/08 04:40:41;;;;;;;14.13;5.60;;;11.10;99.90;;;;;;5034626;28;20913;-80
2022/05/08 04:43:09;;;;;;;13.87;5.03;;;11.10;99.90;;;;;;5033530;28;20460;-77
2022/05/08 04:45:36;;;;;;;13.80;4.60;;;11.10;99.90;;;;;;5033193;28;20449;-77
2022/05/08 04:48:03;;;;;;;19.13;4.93;;;11.00;99.90;;;;;;5032706;28;20484;-79
2022/05/08 04:50:31;;;;;;;15.57;5.60;;;11.00;99.90;;;;;;5032248;28;20457;-77
2022/05/08 04:52:57;;;;;;;17.03;5.60;;;10.80;99.90;;;;;;5032617;28;20502;-77
2022/05/08 04:55:24;;;;;;;19.20;5.40;;;10.80;99.90;;;;;;5032144;28;20463;-77
2022/05/08 04:57:51;;;;;;;15.57;5.70;;;10.80;99.90;;;;;;5034801;28;20560;-81
2022/05/08 05:00:20;;;;;;;9.00;4.40;;;10.80;99.90;;;;;;5035484;28;20499;-82
2022/05/08 05:02:47;;;;;;;17.83;4.73;;;10.80;99.90;;;;;;5034062;28;20459;-82
2022/05/08 05:05:13;;;;;;;8.53;4.07;;;10.80;99.90;;;;;;5035319;28;20453;-82
2022/05/08 05:07:41;;;;;;;9.87;4.37;;;10.80;99.90;;;;;;5035166;28;20548;-81
2022/05/08 05:10:10;;;;;;;11.70;3.53;;;10.90;99.90;;;;;;5035162;28;20479;-82
2022/05/08 05:12:37;;;;;;;14.93;4.80;;;11.00;99.90;;;;;;5041704;28;20453;-83
2022/05/08 05:15:05;;;;;;;14.60;4.17;;;10.90;99.90;;;;;;5038267;28;21064;-82
2022/05/08 05:17:34;;;;;;;19.83;5.50;;;11.00;99.90;;;;;;5038080;28;20501;-81
2022/05/08 05:20:00;;;;;;;12.77;5.90;;;10.90;99.90;;;;;;5037367;28;20489;-82
2022/05/08 05:22:27;;;;;;;17.10;5.20;;;10.90;99.90;;;;;;5037701;28;20449;-81
2022/05/08 05:24:56;;;;;;;23.40;4.97;;;10.90;99.90;;;;;;5037836;28;20524;-81
2022/05/08 05:27:23;;;;;;;15.30;5.10;;;10.90;99.90;;;;;;5037182;28;20464;-81
2022/05/08 05:29:50;;;;;;;16.10;5.50;;;11.00;99.90;;;;;;5037101;28;21038;-82
2022/05/08 05:32:17;;;;;;;17.70;5.80;;;11.00;99.90;;;;;;5037337;28;20532;-81
2022/05/08 05:34:45;;;;;;;20.00;5.17;;;11.00;99.90;;;;;;5038450;28;20459;-79
2022/05/08 05:37:12;;;;;;;16.57;5.67;;;11.10;99.90;;;;;;5041257;28;20469;-80
2022/05/08 05:39:39;;;;;;;17.47;4.90;;;11.10;99.90;;;;;;5040224;28;21087;-80
2022/05/08 05:42:06;;;;;;;14.60;5.00;;;11.10;99.90;;;;;;5039176;28;20460;-79
2022/05/08 05:44:32;;;;;;;13.73;4.83;;;11.20;99.90;;;;;;5057190;22;20499;-79
2022/05/08 05:49:45;;;;;;;20.00;5.20;;;11.30;99.90;;;;;;5031591;28;20439;-78
2022/05/08 05:52:12;;;;;;;14.47;5.13;;;11.40;99.90;;;;;;5025023;28;20444;-78
2022/05/08 05:54:39;;;;;;;15.63;5.23;;;11.40;99.90;;;;;;5029543;28;20466;-80
2022/05/08 05:57:06;;;;;;;9.87;4.93;;;11.40;99.90;;;;;;5024354;28;21010;-79
2022/05/08 05:59:32;;;;;;;18.60;6.10;;;11.60;99.90;;;;;;5022060;28;20490;-80
2022/05/08 06:01:59;;;;;;;16.60;5.43;;;11.70;99.90;;;;;;5022296;28;20488;-79
2022/05/08 06:04:26;;;;;;;20.23;5.70;;;11.80;99.90;;;;;;5019492;28;20478;-79
2022/05/08 06:06:54;;;;;;;16.23;5.60;;;12.00;99.90;;;;;;5016376;28;20454;-79
2022/05/08 06:09:21;;;;;;;18.23;6.10;;;12.20;99.90;;;;;;5017928;28;20530;-79
2022/05/08 06:11:47;;;;;;;15.73;4.93;;;12.40;99.90;;;;;;5013963;28;20460;-79
2022/05/08 06:14:15;;;;;;;30.53;5.60;;;12.70;99.90;;;;;;5016780;28;20481;-79
2022/05/08 06:17:03;;;;;;;16.10;5.10;;;12.70;99.90;;;;;;5023269;28;20931;-78
2022/05/08 06:19:38;;;;;;;14.50;5.10;;;12.80;99.90;;;;;;5024508;28;20496;-79
2022/05/08 06:22:06;;;;;;;16.73;5.10;;;12.90;99.90;;;;;;5019872;28;20442;-78
2022/05/08 06:24:35;;;;;;;15.63;5.20;;;13.10;99.90;;;;;;5017809;28;20560;-79
2022/05/08 06:27:05;;;;;;;19.30;6.33;;;13.10;99.90;;;;;;5021092;28;20457;-78
2022/05/08 06:29:34;;;;;;;11.43;4.37;;;13.20;99.90;;;;;;5018383;28;20584;-78
2022/05/08 06:32:01;;;;;;;20.30;6.57;;;13.10;99.90;;;;;;5015293;28;20452;-77
2022/05/08 06:34:29;;;;;;;13.83;4.60;;;13.20;99.90;;;;;;5016931;28;20478;-78
2022/05/08 06:36:56;;;;;;;17.40;5.07;;;13.30;99.90;;;;;;5012579;28;20460;-79
2022/05/08 06:39:27;;;;;;;24.93;5.93;;;13.20;99.90;;;;;;5013304;28;20479;-79
2022/05/08 06:41:53;;;;;;;13.13;4.00;;;13.20;99.90;;;;;;5015860;28;20458;-78
2022/05/08 06:44:20;;;;;;;13.40;5.10;;;13.40;99.90;;;;;;5014357;28;20507;-79
2022/05/08 06:46:47;;;;;;;18.00;4.97;;;13.60;99.90;;;;;;5015105;28;20525;-78
2022/05/08 06:49:14;;;;;;;12.53;4.90;;;13.60;99.90;;;;;;5015585;28;20480;-79
2022/05/08 06:51:43;;;;;;;10.57;4.50;;;13.50;99.90;;;;;;5025180;28;20458;-80
2022/05/08 06:54:09;;;;;;;11.33;4.00;;;13.20;99.90;;;;;;5023518;28;20478;-78
2022/05/08 06:56:41;;;;;;;13.97;5.10;;;13.30;99.90;;;;;;5020080;28;20466;-79
2022/05/08 07:01:52;;;;;;;13.17;3.33;;;13.70;99.90;;;;;;5025485;28;20431;-77
2022/05/08 07:04:19;;;;;;;20.43;4.53;;;14.00;99.90;;;;;;5017423;28;20928;-78
2022/05/08 07:06:46;;;;;;;11.13;3.63;;;13.80;99.90;;;;;;5019820;28;20459;-79
2022/05/08 07:09:14;;;;;;;16.33;4.70;;;14.00;99.90;;;;;;5023571;28;20460;-79
2022/05/08 07:11:45;;;;;;;10.87;3.70;;;14.20;99.90;;;;;;5030844;28;20838;-78
2022/05/08 07:14:11;;;;;;;10.40;3.33;;;14.20;99.90;;;;;;5021154;28;20586;-78
2022/05/08 07:16:38;;;;;;;12.83;4.30;;;14.20;99.90;;;;;;5021636;28;20520;-79
2022/05/08 07:19:05;;;;;;;8.60;3.23;;;14.30;99.90;;;;;;5022516;28;20443;-77
2022/05/08 07:21:32;;;;;;;14.10;3.83;;;14.50;99.90;;;;;;5022312;28;20457;-78
2022/05/08 07:23:59;;;;;;;16.77;5.00;;;14.60;99.90;;;;;;5022064;28;20483;-78
2022/05/08 07:26:25;;;;;;;16.27;4.60;;;14.50;99.90;;;;;;5020984;28;20542;-78
2022/05/08 07:28:53;;;;;;;9.30;4.57;;;14.70;99.90;;;;;;5022158;28;20458;-79
2022/05/08 07:31:20;;;;;;;12.13;4.80;;;14.70;99.90;;;;;;5022633;28;20958;-77
2022/05/08 07:33:47;;;;;;;14.93;4.70;;;14.70;99.90;;;;;;5021045;28;20484;-78
2022/05/08 07:36:13;;;;;;;9.20;4.00;;;14.60;99.90;;;;;;5021017;28;21035;-78
2022/05/08 07:38:41;;;;;;;11.83;3.57;;;14.60;99.90;;;;;;5020227;28;20490;-78
2022/05/08 07:41:09;;;;;;;13.53;3.80;;;14.70;99.90;;;;;;5020542;28;20231;-77
2022/05/08 07:43:35;;;;;;;12.87;3.43;;;14.80;99.90;;;;;;5020200;28;20490;-79
2022/05/08 07:46:04;;;;;;;15.20;4.43;;;15.00;99.90;;;;;;5020000;28;20457;-77
2022/05/08 07:48:31;;;;;;;11.13;3.80;;;15.10;99.90;;;;;;5021748;28;20834;-78
2022/05/08 07:50:59;;;;;;;9.80;3.83;;;15.20;99.90;;;;;;5021678;28;20457;-79
2022/05/08 07:53:26;;;;;;;15.20;5.60;;;15.50;99.90;;;;;;5021150;28;20454;-77
2022/05/08 07:55:53;;;;;;;12.27;4.70;;;15.60;99.90;;;;;;5012714;28;20525;-79
2022/05/08 07:58:21;;;;;;;12.40;4.20;;;15.90;99.90;;;;;;5020681;28;20481;-78
2022/05/08 08:00:49;;;;;;;6.27;3.30;;;16.20;99.90;;;;;;5020822;28;20490;-78
2022/05/08 08:03:17;;;;;;;12.50;4.93;;;16.10;99.90;;;;;;5019755;28;20464;-78
2022/05/08 08:05:44;;;;;;;18.33;4.90;;;16.40;99.90;;;;;;5020596;28;20955;-78
2022/05/08 08:08:11;;;;;;;12.47;4.43;;;16.30;99.90;;;;;;5020793;28;20541;-77
2022/05/08 08:10:37;;;;;;;10.90;3.17;;;16.70;99.90;;;;;;5018145;28;20452;-78
2022/05/08 08:13:04;;;;;;;11.53;3.33;;;16.80;99.90;;;;;;5018986;28;20479;-77
2022/05/08 08:15:32;;;;;;;11.10;3.73;;;17.20;99.90;;;;;;5018437;28;20487;-77
2022/05/08 08:17:58;;;;;;;12.30;3.93;;;17.40;99.90;;;;;;5021497;28;20481;-77
2022/05/08 08:20:27;;;;;;;11.23;3.07;;;18.10;99.90;;;;;;5021468;28;20641;-77
2022/05/08 08:22:54;;;;;;;10.57;3.03;;;17.90;99.90;;;;;;5022003;28;20461;-79
2022/05/08 08:25:22;;;;;;;13.80;3.70;;;18.50;99.90;;;;;;5020595;28;20858;-78
2022/05/08 08:27:48;;;;;;;11.87;4.50;;;18.60;99.90;;;;;;5021091;28;20889;-77
2022/05/08 08:30:15;;;;;;;9.87;3.80;;;18.50;99.90;;;;;;5021227;28;20521;-78
2022/05/08 08:32:42;;;;;;;12.17;3.30;;;18.40;99.90;;;;;;5022883;28;20450;-77
2022/05/08 08:35:09;;;;;;;12.07;3.13;;;18.40;99.90;;;;;;5021314;28;21015;-77
2022/05/08 08:37:37;;;;;;;7.83;3.60;;;18.30;99.90;;;;;;5021050;28;20449;-77
2022/05/08 08:40:05;;;;;;;12.57;3.57;;;18.00;99.90;;;;;;5021120;28;20481;-78
2022/05/08 08:42:33;;;;;;;10.10;3.30;;;18.20;99.90;;;;;;5020995;28;20466;-77
2022/05/08 08:47:54;;;;;;;10.80;3.40;;;19.30;99.90;;;;;;5020853;28;20460;-78
2022/05/08 08:50:23;;;;;;;10.60;2.77;;;19.90;99.90;;;;;;5021315;28;20490;-78
2022/05/08 08:52:53;;;;;;;9.93;3.50;;;19.40;99.90;;;;;;5021734;28;20454;-78
2022/05/08 08:55:20;;;;;;;8.90;3.60;;;19.40;99.90;;;;;;5019815;28;20480;-79
2022/05/08 08:57:47;;;;;;;12.70;3.40;;;19.80;99.90;;;;;;5019990;28;20452;-78
2022/05/08 09:00:15;;;;;;;10.03;3.53;;;20.40;99.90;;;;;;5019320;28;20486;-78
2022/05/08 09:02:42;;;;;;;8.67;3.30;;;21.50;99.90;;;;;;5021043;28;20466;-77
2022/05/08 09:05:10;;;;;;;11.20;3.03;;;21.70;99.90;;;;;;5019570;28;20492;-78
2022/05/08 09:07:42;;;;;;;10.07;4.10;;;22.30;99.90;;;;;;5014497;28;20851;-78
2022/05/08 09:10:13;;;;;;;11.50;2.87;;;22.40;99.90;;;;;;5018500;28;20450;-78
2022/05/08 09:12:41;;;;;;;10.20;3.50;;;21.60;99.90;;;;;;5018790;28;20450;-78
2022/05/08 09:15:19;;;;;;;6.40;3.00;;;21.70;99.90;;;;;;5020620;28;20473;-78
2022/05/08 09:17:46;;;;;;;7.90;3.20;;;22.00;99.90;;;;;;5020050;28;20446;-78
2022/05/08 09:20:29;;;;;;;9.67;3.30;;;22.20;99.90;;;;;;5016760;28;20477;-77
2022/05/08 09:23:06;;;;;;;11.57;3.90;;;21.80;99.90;;;;;;5015425;28;20465;-78
2022/05/08 09:26:08;;;;;;;14.33;4.90;;;21.20;99.90;;;;;;5001379;28;20506;-78
2022/05/08 09:28:40;;;;;;;13.87;3.97;;;20.50;99.90;;;;;;4938949;29;20463;-77
2022/05/08 09:31:08;;;;;;;9.03;3.03;;;20.20;99.90;;;;;;5001238;28;20502;-77
2022/05/08 09:33:36;;;;;;;9.70;3.30;;;19.50;99.90;;;;;;5016236;28;20476;-77
2022/05/08 09:36:05;;;;;;;9.27;3.43;;;18.70;99.90;;;;;;5031400;28;20463;-77
2022/05/08 09:38:43;;;;;;;13.90;3.17;;;18.70;99.90;;;;;;5024707;28;20985;-82
2022/05/08 09:41:11;;;;;;;10.53;3.43;;;18.70;99.90;;;;;;5027934;28;20496;-77
2022/05/08 09:43:40;;;;;;;6.43;2.90;;;18.60;99.90;;;;;;5013226;28;21296;-79
2022/05/08 09:46:08;;;;;;;8.53;3.00;;;18.50;99.90;;;;;;5016596;28;20460;-77
2022/05/08 09:48:35;;;;;;;13.13;3.30;;;18.40;99.90;;;;;;5011005;28;20938;-76
2022/05/08 09:51:04;;;;;;;10.90;3.50;;;18.50;99.90;;;;;;5016963;28;20548;-77
2022/05/08 09:53:32;;;;;;;7.50;2.63;;;18.50;99.90;;;;;;5015862;28;21291;-77
2022/05/08 09:56:00;;;;;;;10.23;3.53;;;18.50;99.90;;;;;;5016676;28;20522;-77
2022/05/08 09:58:28;;;;;;;13.40;3.23;;;18.60;99.90;;;;;;5015991;28;20573;-76
2022/05/08 10:00:56;;;;;;;10.27;3.90;;;18.90;99.90;;;;;;5018663;28;20496;-79
2022/05/08 10:03:24;;;;;;;8.63;3.20;;;19.30;99.90;;;;;;5025474;28;20459;-81
2022/05/08 10:05:51;;;;;;;12.10;3.70;;;19.20;99.90;;;;;;5017539;28;20483;-79
2022/05/08 10:08:21;;;;;;;9.40;4.37;;;19.30;99.90;;;;;;5021114;28;20518;-79
2022/05/08 10:13:56;;;;;;;9.20;2.77;;;18.80;99.90;;;;;;5015695;28;20459;-78
2022/05/08 10:16:52;;;;;;;10.73;3.40;;;18.80;99.90;;;;;;5011581;28;20486;-77
2022/05/08 10:19:46;;;;;;;8.37;2.90;;;19.20;99.90;;;;;;5016702;28;20456;-78
2022/05/08 10:22:14;;;;;;;9.00;2.70;;;19.70;99.90;;;;;;5015397;28;20496;-78
2022/05/08 10:24:47;;;;;;;17.90;14.67;;;20.10;99.90;;;;;;5015770;28;20478;-77
2022/05/08 10:27:16;;;;;;;33.50;29.90;;;20.30;99.90;;;;;;5015063;28;20489;-77
2022/05/08 10:30:11;;;;;;;22.03;18.43;;;20.80;99.90;;;;;;5014384;28;20489;-77
2022/05/08 10:32:51;;;;;;;9.43;3.63;;;21.00;99.90;;;;;;5003410;28;20747;-80
2022/05/08 10:35:20;;;;;;;16.30;11.30;;;22.10;99.90;;;;;;5020653;28;20505;-77
2022/05/08 10:37:49;;;;;;;47.93;43.67;;;23.10;99.90;;;;;;5022972;28;20473;-80
2022/05/08 10:40:36;;;;;;;28.17;25.23;;;24.10;99.90;;;;;;5022943;28;20454;-79
2022/05/08 10:43:28;;;;;;;14.63;6.50;;;24.70;99.90;;;;;;5023236;28;20461;-79
2022/05/08 10:45:58;;;;;;;11.67;3.80;;;25.60;99.90;;;;;;5023732;28;20826;-79
2022/05/08 10:48:30;;;;;;;6.20;2.20;;;27.10;99.90;;;;;;5018989;28;20466;-81
2022/05/08 10:51:00;;;;;;;7.53;4.70;;;27.90;99.90;;;;;;5023207;28;20484;-80
2022/05/08 10:53:28;;;;;;;71.53;64.10;;;29.70;98.30;;;;;;5014527;28;20458;-80
2022/05/08 10:56:05;;;;;;;81.07;65.67;;;30.70;92.30;;;;;;5021263;28;20461;-81
2022/05/08 10:58:33;;;;;;;178.47;159.97;;;30.10;85.40;;;;;;5022099;28;20543;-82
2022/05/08 11:01:04;;;;;;;74.50;67.70;;;31.90;80.00;;;;;;5021985;28;20867;-79
2022/05/08 11:03:31;;;;;;;26.93;23.73;;;33.20;72.90;;;;;;5022001;28;20535;-80
2022/05/08 11:05:58;;;;;;;10.70;6.03;;;34.60;74.00;;;;;;5018140;28;20453;-80
2022/05/08 11:08:28;;;;;;;11.20;8.03;;;34.20;63.30;;;;;;5020950;28;20455;-82
2022/05/08 11:11:02;;;;;;;8.87;5.70;;;34.30;58.10;;;;;;5023131;28;20450;-80
2022/05/08 11:13:39;;;;;;;19.20;17.30;;;34.70;55.50;;;;;;5023202;28;20458;-79
2022/05/08 11:16:07;;;;;;;11.40;6.90;;;35.10;57.70;;;;;;5024670;28;20500;-80
2022/05/08 11:18:34;;;;;;;17.93;10.80;;;36.10;56.20;;;;;;5020651;28;20456;-78
2022/05/08 11:21:03;;;;;;;12.20;10.03;;;36.30;52.10;;;;;;5021789;28;20493;-81
2022/05/08 11:23:31;;;;;;;104.73;95.00;;;36.90;49.60;;;;;;5023731;28;20450;-80
2022/05/08 11:25:59;;;;;;;19.90;16.07;;;38.40;49.50;;;;;;5024683;28;20441;-78
2022/05/08 11:28:28;;;;;;;23.40;20.97;;;38.40;52.10;;;;;;5020338;28;20469;-79
2022/05/08 11:30:57;;;;;;;11.30;10.10;;;37.70;49.20;;;;;;5020563;28;20536;-81
2022/05/08 11:36:25;;;;;;;6.43;3.63;;;37.90;99.90;;;;;;5022604;28;20441;-80
2022/05/08 11:38:55;;;;;;;8.30;5.50;;;37.10;99.90;;;;;;5021917;28;20449;-80
2022/05/08 11:41:24;;;;;;;14.30;13.00;;;38.50;99.90;;;;;;5023604;28;20543;-80
2022/05/08 11:43:52;;;;;;;8.80;7.80;;;38.70;99.90;;;;;;5023657;28;20569;-81
2022/05/08 11:46:20;;;;;;;6.83;5.70;;;38.30;99.90;;;;;;5024140;28;20480;-79
2022/05/08 11:48:49;;;;;;;6.40;3.90;;;38.40;99.90;;;;;;5021725;28;20529;-81
2022/05/08 11:51:20;;;;;;;4.73;2.27;;;38.20;99.90;;;;;;5022249;28;20956;-79
2022/05/08 11:53:49;;;;;;;6.50;2.60;;;38.50;99.90;;;;;;5053553;22;20497;-80
2022/05/08 11:56:38;;;;;;;7.50;2.93;;;38.00;99.90;;;;;;5041285;28;20456;-79
2022/05/08 11:59:16;;;;;;;6.37;3.60;;;37.70;99.90;;;;;;5035243;28;20531;-79
2022/05/08 12:01:49;;;;;;;4.87;2.13;;;38.60;99.90;;;;;;5040866;28;20491;-80
2022/05/08 12:04:26;;;;;;;5.93;1.97;;;38.10;99.90;;;;;;5043926;28;20501;-80
2022/05/08 12:07:01;;;;;;;4.33;1.77;;;38.30;99.90;;;;;;5039849;28;20464;-79
2022/05/08 12:09:30;;;;;;;4.57;2.00;;;38.80;99.90;;;;;;5029677;28;20452;-79
2022/05/08 12:11:57;;;;;;;5.57;2.63;;;39.20;99.90;;;;;;5038140;28;20453;-79
2022/05/08 12:14:31;;;;;;;4.83;2.40;;;38.70;99.90;;;;;;5038129;28;21018;-77
2022/05/08 12:17:02;;;;;;;5.30;2.20;;;38.40;99.90;;;;;;5034849;28;20452;-78
2022/05/08 12:19:31;;;;;;;7.60;2.30;;;38.50;99.90;;;;;;5037616;28;20486;-79
2022/05/08 12:21:58;;;;;;;5.03;2.70;;;39.20;99.90;;;;;;5036893;28;20484;-79
2022/05/08 12:24:25;;;;;;;6.47;2.83;;;38.80;99.90;;;;;;5035210;28;20544;-80
2022/05/08 12:26:51;;;;;;;5.63;2.20;;;39.20;99.90;;;;;;5038516;28;20460;-78
2022/05/08 12:29:20;;;;;;;6.83;2.80;;;39.60;99.90;;;;;;5036674;28;21052;-79
2022/05/08 12:31:50;;;;;;;4.93;2.27;;;39.90;99.90;;;;;;5037452;28;20512;-80
2022/05/08 12:34:18;;;;;;;6.83;2.63;;;39.60;99.90;;;;;;5038848;28;20481;-79
2022/05/08 12:36:47;;;;;;;6.00;3.03;;;40.80;99.90;;;;;;5028651;28;20464;-78
2022/05/08 12:39:14;;;;;;;5.90;2.70;;;40.20;99.90;;;;;;5031080;28;20531;-77
2022/05/08 12:41:41;;;;;;;8.00;2.67;;;40.60;99.90;;;;;;5022070;28;20485;-78
2022/05/08 12:44:08;;;;;;;7.50;2.60;;;40.60;99.90;;;;;;5018084;28;20464;-78
2022/05/08 12:46:36;;;;;;;7.70;2.60;;;40.50;99.90;;;;;;5031410;28;20479;-75
2022/05/08 12:49:03;;;;;;;5.40;2.53;;;40.70;99.90;;;;;;5033723;28;20535;-78
2022/05/08 12:51:33;;;;;;;6.50;2.60;;;40.40;99.90;;;;;;5035766;28;20988;-79
2022/05/08 12:54:02;;;;;;;6.50;3.50;;;40.20;99.90;;;;;;5029430;28;21010;-78
2022/05/08 12:56:30;;;;;;;6.20;3.80;;;39.30;99.90;;;;;;5037833;28;20523;-76
2022/05/08 13:01:42;;;;;;;5.70;4.43;;;39.30;99.90;;;;;;5036488;28;20531;-78
2022/05/08 13:04:09;;;;;;;6.80;4.10;;;39.40;99.90;;;;;;5034379;28;20469;-79
2022/05/08 13:06:36;;;;;;;5.37;3.40;;;39.60;99.90;;;;;;5037142;28;20456;-79
2022/05/08 13:09:06;;;;;;;4.83;2.77;;;39.90;99.90;;;;;;5039637;28;20449;-79
2022/05/08 13:11:33;;;;;;;8.53;3.03;;;40.00;99.90;;;;;;5036035;28;20906;-77
2022/05/08 13:14:01;;;;;;;4.37;2.40;;;40.20;99.90;;;;;;5035263;28;20503;-79